sensor_id;sensor_type;location;lat;lon;timestamp;temperature;humidity
1976;DHT22;988;48.016;7.800;2023-05-07T00:00:09;14.40;99.90
1976;DHT22;988;48.016;7.800;2023-05-07T00:02:36;14.40;99.90
1976;DHT22;988;48.016;7.800;2023-05-07T00:05:03;14.40;99.90
1976;DHT22;988;48.016;7.800;2023-05-07T00:07:29;14.50;99.90
1976;DHT22;988;48.016;7.800;2023-05-07T00:09:54;14.40;99.90
1976;DHT22;988;48.016;7.800;2023-05-07T00:12:20;14.40;99.90
1976;DHT22;988;48.016;7.800;2023-05-07T00:14:46;14.30;99.90
1976;DHT22;988;48.016;7.800;2023-05-07T00:17:12;14.30;99.90
1976;DHT22;988;48.016;7.800;2023-05-07T00:19:37;14.30;99.90
1976;DHT22;988;48.016;7.800;2023-05-07T00:22:03;14.30;99.90
1976;DHT22;988;48.016;7.800;2023-05-07T00:24:29;14.40;99.90
1976;DHT22;988;48.016;7.800;2023-05-07T00:26:54;14.40;99.90
1976;DHT22;988;48.016;7.800;2023-05-07T00:29:20;14.50;99.90
1976;DHT22;988;48.016;7.800;2023-05-07T00:31:45;14.40;99.90
1976;DHT22;988;48.016;7.800;2023-05-07T00:34:11;14.30;99.90
1976;DHT22;988;48.016;7.800;2023-05-07T00:36:36;14.30;99.90
1976;DHT22;988;48.016;7.800;2023-05-07T00:39:02;14.30;99.90
1976;DHT22;988;48.016;7.800;2023-05-07T00:41:29;14.30;99.90
1976;DHT22;988;48.016;7.800;2023-05-07T00:43:56;14.20;99.90
1976;DHT22;988;48.016;7.800;2023-05-07T00:46:22;14.10;99.90
1976;DHT22;988;48.016;7.800;2023-05-07T00:48:48;14.10;99.90
1976;DHT22;988;48.016;7.800;2023-05-07T00:51:15;14.10;99.90
1976;DHT22;988;48.016;7.800;2023-05-07T00:53:41;14.10;99.90
1976;DHT22;988;48.016;7.800;2023-05-07T00:56:06;14.20;99.90
1976;DHT22;988;48.016;7.800;2023-05-07T00:58:33;14.30;99.90
1976;DHT22;988;48.016;7.800;2023-05-07T01:00:59;14.20;99.90
1976;DHT22;988;48.016;7.800;2023-05-07T01:03:24;14.20;99.90
1976;DHT22;988;48.016;7.800;2023-05-07T01:05:52;14.20;99.90
1976;DHT22;988;48.016;7.800;2023-05-07T01:08:19;14.30;99.90
1976;DHT22;988;48.016;7.800;2023-05-07T01:10:46;14.30;99.90
1976;DHT22;988;48.016;7.800;2023-05-07T01:13:14;14.30;99.90
1976;DHT22;988;48.016;7.800;2023-05-07T01:15:40;14.40;99.90
1976;DHT22;988;48.016;7.800;2023-05-07T01:18:08;14.40;99.90
1976;DHT22;988;48.016;7.800;2023-05-07T01:20:33;14.40;99.90
1976;DHT22;988;48.016;7.800;2023-05-07T01:23:00;14.40;99.90
1976;DHT22;988;48.016;7.800;2023-05-07T01:25:26;14.30;99.90
1976;DHT22;988;48.016;7.800;2023-05-07T01:27:52;14.30;99.90
1976;DHT22;988;48.016;7.800;2023-05-07T01:30:19;14.10;99.90
1976;DHT22;988;48.016;7.800;2023-05-07T01:32:59;14.00;99.90
1976;DHT22;988;48.016;7.800;2023-05-07T01:35:29;13.90;99.90
1976;DHT22;988;48.016;7.800;2023-05-07T01:37:56;13.80;99.90
1976;DHT22;988;48.016;7.800;2023-05-07T01:40:23;13.80;99.90
1976;DHT22;988;48.016;7.800;2023-05-07T01:42:50;13.80;99.90
1976;DHT22;988;48.016;7.800;2023-05-07T01:45:16;13.70;99.90
1976;DHT22;988;48.016;7.800;2023-05-07T01:47:42;13.80;99.90
1976;DHT22;988;48.016;7.800;2023-05-07T01:50:09;13.80;99.90
1976;DHT22;988;48.016;7.800;2023-05-07T01:52:37;13.70;99.90
1976;DHT22;988;48.016;7.800;2023-05-07T01:55:03;13.70;99.90
1976;DHT22;988;48.016;7.800;2023-05-07T01:57:29;13.60;99.90
1976;DHT22;988;48.016;7.800;2023-05-07T01:59:54;13.70;99.90
1976;DHT22;988;48.016;7.800;2023-05-07T02:02:20;13.70;99.90
1976;DHT22;988;48.016;7.800;2023-05-07T02:04:45;13.60;99.90
1976;DHT22;988;48.016;7.800;2023-05-07T02:07:11;13.60;99.90
1976;DHT22;988;48.016;7.800;2023-05-07T02:09:36;13.60;99.90
1976;DHT22;988;48.016;7.800;2023-05-07T02:12:02;13.50;99.90
1976;DHT22;988;48.016;7.800;2023-05-07T02:14:28;13.40;99.90
1976;DHT22;988;48.016;7.800;2023-05-07T02:16:53;13.40;99.90
1976;DHT22;988;48.016;7.800;2023-05-07T02:19:19;13.40;99.90
1976;DHT22;988;48.016;7.800;2023-05-07T02:21:46;13.30;99.90
1976;DHT22;988;48.016;7.800;2023-05-07T02:24:12;13.20;99.90
1976;DHT22;988;48.016;7.800;2023-05-07T02:26:39;13.10;99.90
1976;DHT22;988;48.016;7.800;2023-05-07T02:29:04;13.20;99.90
1976;DHT22;988;48.016;7.800;2023-05-07T02:31:30;13.30;99.90
1976;DHT22;988;48.016;7.800;2023-05-07T02:33:55;13.30;99.90
1976;DHT22;988;48.016;7.800;2023-05-07T02:36:21;13.20;99.90
1976;DHT22;988;48.016;7.800;2023-05-07T02:38:47;13.10;99.90
1976;DHT22;988;48.016;7.800;2023-05-07T02:41:12;13.10;99.90
1976;DHT22;988;48.016;7.800;2023-05-07T02:43:38;13.00;99.90
1976;DHT22;988;48.016;7.800;2023-05-07T02:46:04;13.00;99.90
1976;DHT22;988;48.016;7.800;2023-05-07T02:48:30;12.90;99.90
1976;DHT22;988;48.016;7.800;2023-05-07T02:50:56;12.90;99.90
1976;DHT22;988;48.016;7.800;2023-05-07T02:53:22;12.80;99.90
1976;DHT22;988;48.016;7.800;2023-05-07T02:55:47;12.70;99.90
1976;DHT22;988;48.016;7.800;2023-05-07T02:58:13;12.60;99.90
1976;DHT22;988;48.016;7.800;2023-05-07T03:00:38;12.70;99.90
1976;DHT22;988;48.016;7.800;2023-05-07T03:03:04;12.70;99.90
1976;DHT22;988;48.016;7.800;2023-05-07T03:05:29;12.80;99.90
1976;DHT22;988;48.016;7.800;2023-05-07T03:07:55;12.70;99.90
1976;DHT22;988;48.016;7.800;2023-05-07T03:10:21;12.80;99.90
1976;DHT22;988;48.016;7.800;2023-05-07T03:12:46;12.80;99.90
1976;DHT22;988;48.016;7.800;2023-05-07T03:15:12;13.00;99.90
1976;DHT22;988;48.016;7.800;2023-05-07T03:17:38;12.90;99.90
1976;DHT22;988;48.016;7.800;2023-05-07T03:20:04;13.00;99.90
1976;DHT22;988;48.016;7.800;2023-05-07T03:22:30;12.80;99.90
1976;DHT22;988;48.016;7.800;2023-05-07T03:24:55;12.70;99.90
1976;DHT22;988;48.016;7.800;2023-05-07T03:27:21;12.70;99.90
1976;DHT22;988;48.016;7.800;2023-05-07T03:29:47;12.70;99.90
1976;DHT22;988;48.016;7.800;2023-05-07T03:32:13;12.60;99.90
1976;DHT22;988;48.016;7.800;2023-05-07T03:34:38;12.60;99.90
1976;DHT22;988;48.016;7.800;2023-05-07T03:37:04;12.50;99.90
1976;DHT22;988;48.016;7.800;2023-05-07T03:39:29;12.60;99.90
1976;DHT22;988;48.016;7.800;2023-05-07T03:41:56;12.60;99.90
1976;DHT22;988;48.016;7.800;2023-05-07T03:44:21;12.60;99.90
1976;DHT22;988;48.016;7.800;2023-05-07T03:46:47;12.60;99.90
1976;DHT22;988;48.016;7.800;2023-05-07T03:49:12;12.70;99.90
1976;DHT22;988;48.016;7.800;2023-05-07T03:51:38;12.70;99.90
1976;DHT22;988;48.016;7.800;2023-05-07T03:54:03;12.70;99.90
1976;DHT22;988;48.016;7.800;2023-05-07T03:56:30;12.70;99.90
1976;DHT22;988;48.016;7.800;2023-05-07T03:58:56;12.60;99.90
1976;DHT22;988;48.016;7.800;2023-05-07T04:01:22;12.60;99.90
1976;DHT22;988;48.016;7.800;2023-05-07T04:03:47;12.70;99.90
1976;DHT22;988;48.016;7.800;2023-05-07T04:06:13;12.80;99.90
1976;DHT22;988;48.016;7.800;2023-05-07T04:08:38;12.70;99.90
1976;DHT22;988;48.016;7.800;2023-05-07T04:11:04;12.80;99.90
1976;DHT22;988;48.016;7.800;2023-05-07T04:13:30;12.80;99.90
1976;DHT22;988;48.016;7.800;2023-05-07T04:15:56;12.90;99.90
1976;DHT22;988;48.016;7.800;2023-05-07T04:18:21;13.00;99.90
1976;DHT22;988;48.016;7.800;2023-05-07T04:20:48;13.00;99.90
1976;DHT22;988;48.016;7.800;2023-05-07T04:23:15;13.00;99.90
1976;DHT22;988;48.016;7.800;2023-05-07T04:25:41;13.00;99.90
1976;DHT22;988;48.016;7.800;2023-05-07T04:28:06;13.00;99.90
1976;DHT22;988;48.016;7.800;2023-05-07T04:30:32;13.00;99.90
1976;DHT22;988;48.016;7.800;2023-05-07T04:32:58;13.10;99.90
1976;DHT22;988;48.016;7.800;2023-05-07T04:35:23;13.10;99.90
1976;DHT22;988;48.016;7.800;2023-05-07T04:37:49;13.20;99.90
1976;DHT22;988;48.016;7.800;2023-05-07T04:40:14;13.30;99.90
1976;DHT22;988;48.016;7.800;2023-05-07T04:42:41;13.30;99.90
1976;DHT22;988;48.016;7.800;2023-05-07T04:45:07;13.50;99.90
1976;DHT22;988;48.016;7.800;2023-05-07T04:47:34;13.60;99.90
1976;DHT22;988;48.016;7.800;2023-05-07T04:49:59;13.50;99.90
1976;DHT22;988;48.016;7.800;2023-05-07T04:52:25;13.50;99.90
1976;DHT22;988;48.016;7.800;2023-05-07T04:54:50;13.70;99.90
1976;DHT22;988;48.016;7.800;2023-05-07T04:57:16;13.80;99.90
1976;DHT22;988;48.016;7.800;2023-05-07T04:59:43;14.00;99.90
1976;DHT22;988;48.016;7.800;2023-05-07T05:02:10;14.00;99.90
1976;DHT22;988;48.016;7.800;2023-05-07T05:04:37;14.10;99.90
1976;DHT22;988;48.016;7.800;2023-05-07T05:07:03;14.30;99.90
1976;DHT22;988;48.016;7.800;2023-05-07T05:09:29;14.40;99.90
1976;DHT22;988;48.016;7.800;2023-05-07T05:11:55;14.60;99.90
1976;DHT22;988;48.016;7.800;2023-05-07T05:14:21;14.50;99.90
1976;DHT22;988;48.016;7.800;2023-05-07T05:16:47;14.80;99.90
1976;DHT22;988;48.016;7.800;2023-05-07T05:19:12;15.00;99.90
1976;DHT22;988;48.016;7.800;2023-05-07T05:21:38;15.20;99.90
1976;DHT22;988;48.016;7.800;2023-05-07T05:24:04;15.20;99.90
1976;DHT22;988;48.016;7.800;2023-05-07T05:26:29;15.20;99.90
1976;DHT22;988;48.016;7.800;2023-05-07T05:28:55;15.40;99.90
1976;DHT22;988;48.016;7.800;2023-05-07T05:31:20;15.30;99.90
1976;DHT22;988;48.016;7.800;2023-05-07T05:33:46;15.40;99.90
1976;DHT22;988;48.016;7.800;2023-05-07T05:36:12;15.30;99.90
1976;DHT22;988;48.016;7.800;2023-05-07T05:38:39;15.50;99.90
1976;DHT22;988;48.016;7.800;2023-05-07T05:41:04;15.60;99.90
1976;DHT22;988;48.016;7.800;2023-05-07T05:43:30;15.70;99.90
1976;DHT22;988;48.016;7.800;2023-05-07T05:45:56;15.80;99.90
1976;DHT22;988;48.016;7.800;2023-05-07T05:48:21;15.90;99.90
1976;DHT22;988;48.016;7.800;2023-05-07T05:50:48;15.70;99.90
1976;DHT22;988;48.016;7.800;2023-05-07T05:53:13;15.60;99.90
1976;DHT22;988;48.016;7.800;2023-05-07T05:55:39;15.60;99.90
1976;DHT22;988;48.016;7.800;2023-05-07T05:58:05;15.80;99.90
1976;DHT22;988;48.016;7.800;2023-05-07T06:00:30;16.10;99.90
1976;DHT22;988;48.016;7.800;2023-05-07T06:02:56;16.20;99.90
1976;DHT22;988;48.016;7.800;2023-05-07T06:05:21;16.20;99.90
1976;DHT22;988;48.016;7.800;2023-05-07T06:07:47;16.30;99.90
1976;DHT22;988;48.016;7.800;2023-05-07T06:10:12;16.60;99.90
1976;DHT22;988;48.016;7.800;2023-05-07T06:12:39;16.80;99.90
1976;DHT22;988;48.016;7.800;2023-05-07T06:15:05;16.90;99.90
1976;DHT22;988;48.016;7.800;2023-05-07T06:17:30;17.00;99.90
1976;DHT22;988;48.016;7.800;2023-05-07T06:19:56;17.00;99.90
1976;DHT22;988;48.016;7.800;2023-05-07T06:22:21;17.40;99.90
1976;DHT22;988;48.016;7.800;2023-05-07T06:24:47;17.60;99.90
1976;DHT22;988;48.016;7.800;2023-05-07T06:27:13;17.80;99.90
1976;DHT22;988;48.016;7.800;2023-05-07T06:29:38;17.60;99.90
1976;DHT22;988;48.016;7.800;2023-05-07T06:32:11;17.60;99.90
1976;DHT22;988;48.016;7.800;2023-05-07T06:34:38;17.50;99.90
1976;DHT22;988;48.016;7.800;2023-05-07T06:37:04;17.40;99.90
1976;DHT22;988;48.016;7.800;2023-05-07T06:39:29;17.50;99.90
1976;DHT22;988;48.016;7.800;2023-05-07T06:41:55;17.60;99.90
1976;DHT22;988;48.016;7.800;2023-05-07T06:44:21;17.80;99.90
1976;DHT22;988;48.016;7.800;2023-05-07T06:46:46;17.90;99.90
1976;DHT22;988;48.016;7.800;2023-05-07T06:49:13;17.80;99.90
1976;DHT22;988;48.016;7.800;2023-05-07T06:51:39;17.80;99.90
1976;DHT22;988;48.016;7.800;2023-05-07T06:54:04;17.70;99.90
1976;DHT22;988;48.016;7.800;2023-05-07T06:56:33;17.60;99.90
1976;DHT22;988;48.016;7.800;2023-05-07T06:59:00;17.80;99.90
1976;DHT22;988;48.016;7.800;2023-05-07T07:01:26;17.70;99.90
1976;DHT22;988;48.016;7.800;2023-05-07T07:03:51;17.80;99.90
1976;DHT22;988;48.016;7.800;2023-05-07T07:06:17;18.20;99.90
1976;DHT22;988;48.016;7.800;2023-05-07T07:08:42;18.40;99.90
1976;DHT22;988;48.016;7.800;2023-05-07T07:11:09;18.30;99.90
1976;DHT22;988;48.016;7.800;2023-05-07T07:13:35;18.40;99.90
1976;DHT22;988;48.016;7.800;2023-05-07T07:16:01;18.60;99.90
1976;DHT22;988;48.016;7.800;2023-05-07T07:18:27;19.00;99.90
1976;DHT22;988;48.016;7.800;2023-05-07T07:20:52;19.80;99.90
1976;DHT22;988;48.016;7.800;2023-05-07T07:23:18;20.80;99.90
1976;DHT22;988;48.016;7.800;2023-05-07T07:25:44;22.00;99.90
1976;DHT22;988;48.016;7.800;2023-05-07T07:28:10;23.00;99.90
1976;DHT22;988;48.016;7.800;2023-05-07T07:30:37;23.90;94.10
1976;DHT22;988;48.016;7.800;2023-05-07T07:33:02;24.10;91.00
1976;DHT22;988;48.016;7.800;2023-05-07T07:35:32;24.40;90.30
1976;DHT22;988;48.016;7.800;2023-05-07T07:37:58;24.80;88.50
1976;DHT22;988;48.016;7.800;2023-05-07T07:40:23;25.60;85.80
1976;DHT22;988;48.016;7.800;2023-05-07T07:42:50;26.00;80.10
1976;DHT22;988;48.016;7.800;2023-05-07T07:45:15;26.70;76.70
1976;DHT22;988;48.016;7.800;2023-05-07T07:47:41;28.00;70.80
1976;DHT22;988;48.016;7.800;2023-05-07T07:50:07;28.50;65.70
1976;DHT22;988;48.016;7.800;2023-05-07T07:52:34;29.10;64.20
1976;DHT22;988;48.016;7.800;2023-05-07T07:54:59;30.10;59.50
1976;DHT22;988;48.016;7.800;2023-05-07T07:57:25;30.20;59.00
1976;DHT22;988;48.016;7.800;2023-05-07T07:59:51;30.60;59.30
1976;DHT22;988;48.016;7.800;2023-05-07T08:02:17;31.40;55.40
1976;DHT22;988;48.016;7.800;2023-05-07T08:04:42;31.30;54.50
1976;DHT22;988;48.016;7.800;2023-05-07T08:07:11;32.10;54.30
1976;DHT22;988;48.016;7.800;2023-05-07T08:09:39;31.90;53.10
1976;DHT22;988;48.016;7.800;2023-05-07T08:12:06;33.00;50.40
1976;DHT22;988;48.016;7.800;2023-05-07T08:14:32;34.00;48.80
1976;DHT22;988;48.016;7.800;2023-05-07T08:16:57;34.00;48.00
1976;DHT22;988;48.016;7.800;2023-05-07T08:19:23;33.40;48.00
1976;DHT22;988;48.016;7.800;2023-05-07T08:21:49;33.20;48.90
1976;DHT22;988;48.016;7.800;2023-05-07T08:24:14;33.40;47.90
1976;DHT22;988;48.016;7.800;2023-05-07T08:26:40;33.10;49.10
1976;DHT22;988;48.016;7.800;2023-05-07T08:29:07;32.50;48.20
1976;DHT22;988;48.016;7.800;2023-05-07T08:31:32;31.90;49.20
1976;DHT22;988;48.016;7.800;2023-05-07T08:33:58;31.70;49.40
1976;DHT22;988;48.016;7.800;2023-05-07T08:36:26;30.00;53.80
1976;DHT22;988;48.016;7.800;2023-05-07T08:38:52;29.00;53.50
1976;DHT22;988;48.016;7.800;2023-05-07T08:41:18;28.60;55.40
1976;DHT22;988;48.016;7.800;2023-05-07T08:43:48;28.60;56.80
1976;DHT22;988;48.016;7.800;2023-05-07T08:46:21;28.30;57.60
1976;DHT22;988;48.016;7.800;2023-05-07T08:48:51;27.60;58.40
1976;DHT22;988;48.016;7.800;2023-05-07T08:51:19;27.10;61.60
1976;DHT22;988;48.016;7.800;2023-05-07T08:53:46;27.10;61.60
1976;DHT22;988;48.016;7.800;2023-05-07T08:56:14;28.50;57.90
1976;DHT22;988;48.016;7.800;2023-05-07T08:58:42;30.00;56.50
1976;DHT22;988;48.016;7.800;2023-05-07T09:01:10;30.00;55.70
1976;DHT22;988;48.016;7.800;2023-05-07T09:03:38;31.30;54.00
1976;DHT22;988;48.016;7.800;2023-05-07T09:06:04;32.10;52.40
1976;DHT22;988;48.016;7.800;2023-05-07T09:08:31;33.10;51.90
1976;DHT22;988;48.016;7.800;2023-05-07T09:10:57;34.40;49.00
1976;DHT22;988;48.016;7.800;2023-05-07T09:13:23;34.40;50.40
1976;DHT22;988;48.016;7.800;2023-05-07T09:15:48;33.50;50.80
1976;DHT22;988;48.016;7.800;2023-05-07T09:18:14;33.60;49.80
1976;DHT22;988;48.016;7.800;2023-05-07T09:20:40;31.70;51.90
1976;DHT22;988;48.016;7.800;2023-05-07T09:23:07;29.70;55.20
1976;DHT22;988;48.016;7.800;2023-05-07T09:25:34;29.80;55.30
1976;DHT22;988;48.016;7.800;2023-05-07T09:28:04;29.70;54.80
1976;DHT22;988;48.016;7.800;2023-05-07T09:30:31;29.50;55.70
1976;DHT22;988;48.016;7.800;2023-05-07T09:32:58;29.70;56.10
1976;DHT22;988;48.016;7.800;2023-05-07T09:35:25;29.00;57.20
1976;DHT22;988;48.016;7.800;2023-05-07T09:37:58;29.60;56.50
1976;DHT22;988;48.016;7.800;2023-05-07T09:40:25;30.40;55.40
1976;DHT22;988;48.016;7.800;2023-05-07T09:42:51;29.50;55.80
1976;DHT22;988;48.016;7.800;2023-05-07T09:45:27;30.50;55.60
1976;DHT22;988;48.016;7.800;2023-05-07T09:47:57;31.20;54.90
1976;DHT22;988;48.016;7.800;2023-05-07T09:50:28;31.70;53.30
1976;DHT22;988;48.016;7.800;2023-05-07T09:52:55;30.10;54.70
1976;DHT22;988;48.016;7.800;2023-05-07T09:55:22;29.10;55.90
1976;DHT22;988;48.016;7.800;2023-05-07T09:57:51;28.10;58.40
1976;DHT22;988;48.016;7.800;2023-05-07T10:00:19;27.20;60.70
1976;DHT22;988;48.016;7.800;2023-05-07T10:02:50;25.80;65.30
1976;DHT22;988;48.016;7.800;2023-05-07T10:05:18;24.40;70.00
1976;DHT22;988;48.016;7.800;2023-05-07T10:07:46;23.00;72.10
1976;DHT22;988;48.016;7.800;2023-05-07T10:10:12;22.30;76.20
1976;DHT22;988;48.016;7.800;2023-05-07T10:12:38;22.00;78.50
1976;DHT22;988;48.016;7.800;2023-05-07T10:15:06;20.80;80.40
1976;DHT22;988;48.016;7.800;2023-05-07T10:17:35;20.10;84.20
1976;DHT22;988;48.016;7.800;2023-05-07T10:20:01;20.20;87.30
1976;DHT22;988;48.016;7.800;2023-05-07T10:22:28;20.10;90.40
1976;DHT22;988;48.016;7.800;2023-05-07T10:24:59;19.70;92.40
1976;DHT22;988;48.016;7.800;2023-05-07T10:27:28;19.50;95.20
1976;DHT22;988;48.016;7.800;2023-05-07T10:30:35;19.70;97.20
1976;DHT22;988;48.016;7.800;2023-05-07T10:33:05;19.10;99.90
1976;DHT22;988;48.016;7.800;2023-05-07T10:35:40;19.20;99.90
1976;DHT22;988;48.016;7.800;2023-05-07T10:38:07;19.20;99.90
1976;DHT22;988;48.016;7.800;2023-05-07T10:40:33;18.70;99.90
1976;DHT22;988;48.016;7.800;2023-05-07T10:43:00;18.50;99.90
1976;DHT22;988;48.016;7.800;2023-05-07T10:45:27;18.20;99.90
1976;DHT22;988;48.016;7.800;2023-05-07T10:48:12;18.00;99.90
1976;DHT22;988;48.016;7.800;2023-05-07T10:50:41;18.30;99.90
1976;DHT22;988;48.016;7.800;2023-05-07T10:55:41;19.40;99.90
1976;DHT22;988;48.016;7.800;2023-05-07T10:58:25;19.70;99.90
1976;DHT22;988;48.016;7.800;2023-05-07T11:00:56;20.20;99.90
1976;DHT22;988;48.016;7.800;2023-05-07T11:03:23;20.60;99.90
1976;DHT22;988;48.016;7.800;2023-05-07T11:11:17;22.20;99.90
1976;DHT22;988;48.016;7.800;2023-05-07T11:13:46;23.10;99.90
1976;DHT22;988;48.016;7.800;2023-05-07T11:16:22;23.70;99.90
1976;DHT22;988;48.016;7.800;2023-05-07T11:18:53;24.30;99.90
1976;DHT22;988;48.016;7.800;2023-05-07T11:21:35;25.10;99.90
1976;DHT22;988;48.016;7.800;2023-05-07T11:24:02;26.00;95.80
1976;DHT22;988;48.016;7.800;2023-05-07T11:26:30;26.90;91.70
1976;DHT22;988;48.016;7.800;2023-05-07T11:28:57;27.80;82.90
1976;DHT22;988;48.016;7.800;2023-05-07T11:31:25;28.40;81.90
1976;DHT22;988;48.016;7.800;2023-05-07T11:33:52;28.90;82.60
1976;DHT22;988;48.016;7.800;2023-05-07T11:36:18;28.70;80.10
1976;DHT22;988;48.016;7.800;2023-05-07T11:38:45;28.90;77.30
1976;DHT22;988;48.016;7.800;2023-05-07T11:41:11;28.80;80.60
1976;DHT22;988;48.016;7.800;2023-05-07T11:43:36;28.40;80.00
1976;DHT22;988;48.016;7.800;2023-05-07T11:46:09;27.80;82.20
1976;DHT22;988;48.016;7.800;2023-05-07T11:48:35;27.90;79.10
1976;DHT22;988;48.016;7.800;2023-05-07T11:51:02;27.60;81.90
1976;DHT22;988;48.016;7.800;2023-05-07T11:53:36;27.70;77.60
1976;DHT22;988;48.016;7.800;2023-05-07T11:56:12;27.70;81.20
1976;DHT22;988;48.016;7.800;2023-05-07T11:58:38;27.70;84.70
1976;DHT22;988;48.016;7.800;2023-05-07T12:01:06;28.10;79.10
1976;DHT22;988;48.016;7.800;2023-05-07T12:03:32;28.10;79.60
1976;DHT22;988;48.016;7.800;2023-05-07T12:05:59;27.60;77.20
1976;DHT22;988;48.016;7.800;2023-05-07T12:08:25;27.30;83.00
1976;DHT22;988;48.016;7.800;2023-05-07T12:10:51;27.00;83.70
1976;DHT22;988;48.016;7.800;2023-05-07T12:13:18;27.40;82.60
1976;DHT22;988;48.016;7.800;2023-05-07T12:15:44;27.90;83.60
1976;DHT22;988;48.016;7.800;2023-05-07T12:18:11;28.10;80.90
1976;DHT22;988;48.016;7.800;2023-05-07T12:20:37;28.20;77.50
1976;DHT22;988;48.016;7.800;2023-05-07T12:23:03;28.20;79.90
1976;DHT22;988;48.016;7.800;2023-05-07T12:25:35;28.40;79.00
1976;DHT22;988;48.016;7.800;2023-05-07T12:28:03;29.10;76.20
1976;DHT22;988;48.016;7.800;2023-05-07T12:30:37;29.90;73.30
1976;DHT22;988;48.016;7.800;2023-05-07T12:33:03;29.80;70.30
1976;DHT22;988;48.016;7.800;2023-05-07T12:35:30;29.90;70.70
1976;DHT22;988;48.016;7.800;2023-05-07T12:38:00;29.40;67.80
1976;DHT22;988;48.016;7.800;2023-05-07T12:40:41;29.00;69.50
1976;DHT22;988;48.016;7.800;2023-05-07T12:43:07;28.00;70.50
1976;DHT22;988;48.016;7.800;2023-05-07T12:45:40;26.80;70.90
1976;DHT22;988;48.016;7.800;2023-05-07T12:48:06;26.20;72.60
1976;DHT22;988;48.016;7.800;2023-05-07T12:50:32;26.40;72.80
1976;DHT22;988;48.016;7.800;2023-05-07T12:52:58;26.10;73.60
1976;DHT22;988;48.016;7.800;2023-05-07T12:55:24;25.80;72.70
1976;DHT22;988;48.016;7.800;2023-05-07T12:57:50;25.70;74.70
1976;DHT22;988;48.016;7.800;2023-05-07T13:00:17;25.50;76.90
1976;DHT22;988;48.016;7.800;2023-05-07T13:02:43;25.40;77.40
1976;DHT22;988;48.016;7.800;2023-05-07T13:05:12;25.70;77.10
1976;DHT22;988;48.016;7.800;2023-05-07T13:07:39;26.00;79.30
1976;DHT22;988;48.016;7.800;2023-05-07T13:10:06;26.10;79.70
1976;DHT22;988;48.016;7.800;2023-05-07T13:12:32;26.30;78.20
1976;DHT22;988;48.016;7.800;2023-05-07T13:14:58;26.30;78.60
1976;DHT22;988;48.016;7.800;2023-05-07T13:17:24;26.10;79.80
1976;DHT22;988;48.016;7.800;2023-05-07T13:19:50;25.70;78.80
1976;DHT22;988;48.016;7.800;2023-05-07T13:22:15;25.80;79.40
1976;DHT22;988;48.016;7.800;2023-05-07T13:24:41;25.80;82.10
1976;DHT22;988;48.016;7.800;2023-05-07T13:27:08;25.40;82.90
1976;DHT22;988;48.016;7.800;2023-05-07T13:29:33;25.40;83.00
1976;DHT22;988;48.016;7.800;2023-05-07T13:31:59;25.10;83.90
1976;DHT22;988;48.016;7.800;2023-05-07T13:34:25;25.30;85.00
1976;DHT22;988;48.016;7.800;2023-05-07T13:36:50;25.40;83.40
1976;DHT22;988;48.016;7.800;2023-05-07T13:39:17;25.10;85.20
1976;DHT22;988;48.016;7.800;2023-05-07T13:41:42;25.30;84.10
1976;DHT22;988;48.016;7.800;2023-05-07T13:44:08;25.30;83.90
1976;DHT22;988;48.016;7.800;2023-05-07T13:46:34;25.80;84.80
1976;DHT22;988;48.016;7.800;2023-05-07T13:48:59;25.80;82.00
1976;DHT22;988;48.016;7.800;2023-05-07T13:51:25;26.30;80.00
1976;DHT22;988;48.016;7.800;2023-05-07T13:53:51;27.10;79.80
1976;DHT22;988;48.016;7.800;2023-05-07T13:56:18;27.50;77.90
1976;DHT22;988;48.016;7.800;2023-05-07T13:58:43;27.40;77.70
1976;DHT22;988;48.016;7.800;2023-05-07T14:01:09;27.40;77.20
1976;DHT22;988;48.016;7.800;2023-05-07T14:03:34;27.70;74.80
1976;DHT22;988;48.016;7.800;2023-05-07T14:06:03;27.40;73.80
1976;DHT22;988;48.016;7.800;2023-05-07T14:08:28;27.10;75.90
1976;DHT22;988;48.016;7.800;2023-05-07T14:10:54;27.30;74.10
1976;DHT22;988;48.016;7.800;2023-05-07T14:13:20;27.40;75.00
1976;DHT22;988;48.016;7.800;2023-05-07T14:15:45;27.30;73.50
1976;DHT22;988;48.016;7.800;2023-05-07T14:18:15;27.70;70.60
1976;DHT22;988;48.016;7.800;2023-05-07T14:20:41;28.10;66.70
1976;DHT22;988;48.016;7.800;2023-05-07T14:23:08;28.60;64.60
1976;DHT22;988;48.016;7.800;2023-05-07T14:25:34;28.70;63.00
1976;DHT22;988;48.016;7.800;2023-05-07T14:27:59;29.30;61.80
1976;DHT22;988;48.016;7.800;2023-05-07T14:30:25;29.70;59.30
1976;DHT22;988;48.016;7.800;2023-05-07T14:32:51;29.90;56.50
1976;DHT22;988;48.016;7.800;2023-05-07T14:35:16;30.20;56.00
1976;DHT22;988;48.016;7.800;2023-05-07T14:37:43;29.90;56.00
1976;DHT22;988;48.016;7.800;2023-05-07T14:40:09;30.10;56.10
1976;DHT22;988;48.016;7.800;2023-05-07T14:42:35;29.80;55.70
1976;DHT22;988;48.016;7.800;2023-05-07T14:45:01;29.50;56.10
1976;DHT22;988;48.016;7.800;2023-05-07T14:47:26;29.50;57.00
1976;DHT22;988;48.016;7.800;2023-05-07T14:49:52;29.50;56.60
1976;DHT22;988;48.016;7.800;2023-05-07T14:52:18;29.20;57.20
1976;DHT22;988;48.016;7.800;2023-05-07T14:54:44;28.60;59.10
1976;DHT22;988;48.016;7.800;2023-05-07T14:57:10;28.40;59.70
1976;DHT22;988;48.016;7.800;2023-05-07T14:59:39;28.30;59.80
1976;DHT22;988;48.016;7.800;2023-05-07T15:02:06;28.10;61.30
1976;DHT22;988;48.016;7.800;2023-05-07T15:04:33;28.10;60.10
1976;DHT22;988;48.016;7.800;2023-05-07T15:06:59;27.90;61.00
1976;DHT22;988;48.016;7.800;2023-05-07T15:09:25;27.50;63.60
1976;DHT22;988;48.016;7.800;2023-05-07T15:11:51;27.60;62.70
1976;DHT22;988;48.016;7.800;2023-05-07T15:14:16;27.20;63.50
1976;DHT22;988;48.016;7.800;2023-05-07T15:16:42;26.60;65.40
1976;DHT22;988;48.016;7.800;2023-05-07T15:19:07;26.50;65.40
1976;DHT22;988;48.016;7.800;2023-05-07T15:21:33;26.10;66.40
1976;DHT22;988;48.016;7.800;2023-05-07T15:24:00;26.00;67.30
1976;DHT22;988;48.016;7.800;2023-05-07T15:26:26;26.00;68.90
1976;DHT22;988;48.016;7.800;2023-05-07T15:28:51;26.30;66.60
1976;DHT22;988;48.016;7.800;2023-05-07T15:31:17;26.10;66.40
1976;DHT22;988;48.016;7.800;2023-05-07T15:33:43;25.90;66.80
1976;DHT22;988;48.016;7.800;2023-05-07T15:36:10;26.30;66.40
1976;DHT22;988;48.016;7.800;2023-05-07T15:38:36;26.40;66.30
1976;DHT22;988;48.016;7.800;2023-05-07T15:41:01;26.40;64.40
1976;DHT22;988;48.016;7.800;2023-05-07T15:43:27;26.70;64.80
1976;DHT22;988;48.016;7.800;2023-05-07T15:45:53;26.30;64.30
1976;DHT22;988;48.016;7.800;2023-05-07T15:48:18;26.00;65.10
1976;DHT22;988;48.016;7.800;2023-05-07T15:50:45;25.90;68.30
1976;DHT22;988;48.016;7.800;2023-05-07T15:53:11;25.70;65.70
1976;DHT22;988;48.016;7.800;2023-05-07T15:55:39;25.50;67.50
1976;DHT22;988;48.016;7.800;2023-05-07T15:58:05;25.50;67.40
1976;DHT22;988;48.016;7.800;2023-05-07T16:00:31;25.20;66.30
1976;DHT22;988;48.016;7.800;2023-05-07T16:02:57;24.90;69.00
1976;DHT22;988;48.016;7.800;2023-05-07T16:05:23;24.80;68.50
1976;DHT22;988;48.016;7.800;2023-05-07T16:07:49;24.50;68.90
1976;DHT22;988;48.016;7.800;2023-05-07T16:10:15;24.40;71.00
1976;DHT22;988;48.016;7.800;2023-05-07T16:12:41;24.40;70.40
1976;DHT22;988;48.016;7.800;2023-05-07T16:15:06;24.40;70.60
1976;DHT22;988;48.016;7.800;2023-05-07T16:17:33;24.60;71.00
1976;DHT22;988;48.016;7.800;2023-05-07T16:19:58;24.30;70.10